sensor_id;sensor_type;location;lat;lon;timestamp;P1;durP1;ratioP1;P2;durP2;ratioP2
1811;SDS011;904;47.814;11.134;2022-09-09T00:01:52;4.00;;;1.43;;
1811;SDS011;904;47.814;11.134;2022-09-09T00:04:26;2.87;;;1.23;;
1811;SDS011;904;47.814;11.134;2022-09-09T00:07:03;2.10;;;1.30;;
1811;SDS011;904;47.814;11.134;2022-09-09T00:09:35;3.50;;;1.40;;
1811;SDS011;904;47.814;11.134;2022-09-09T00:12:11;6.73;;;2.13;;
1811;SDS011;904;47.814;11.134;2022-09-09T00:14:45;4.63;;;1.43;;
1811;SDS011;904;47.814;11.134;2022-09-09T00:17:20;2.63;;;1.30;;
1811;SDS011;904;47.814;11.134;2022-09-09T00:20:00;6.87;;;2.00;;
1811;SDS011;904;47.814;11.134;2022-09-09T00:22:36;5.20;;;2.07;;
1811;SDS011;904;47.814;11.134;2022-09-09T00:25:09;2.90;;;1.70;;
1811;SDS011;904;47.814;11.134;2022-09-09T00:27:44;3.00;;;1.40;;
1811;SDS011;904;47.814;11.134;2022-09-09T00:30:16;2.57;;;1.30;;
1811;SDS011;904;47.814;11.134;2022-09-09T00:32:47;3.00;;;1.67;;
1811;SDS011;904;47.814;11.134;2022-09-09T00:35:17;5.53;;;1.90;;
1811;SDS011;904;47.814;11.134;2022-09-09T00:37:51;2.90;;;1.20;;
1811;SDS011;904;47.814;11.134;2022-09-09T00:40:23;6.50;;;1.40;;
1811;SDS011;904;47.814;11.134;2022-09-09T00:43:02;3.70;;;1.70;;
1811;SDS011;904;47.814;11.134;2022-09-09T00:45:48;3.80;;;1.77;;
1811;SDS011;904;47.814;11.134;2022-09-09T00:48:32;3.53;;;1.43;;
1811;SDS011;904;47.814;11.134;2022-09-09T00:51:08;7.23;;;1.47;;
1811;SDS011;904;47.814;11.134;2022-09-09T00:53:55;5.20;;;1.60;;
1811;SDS011;904;47.814;11.134;2022-09-09T00:56:34;3.07;;;1.30;;
1811;SDS011;904;47.814;11.134;2022-09-09T00:59:12;3.53;;;1.43;;
1811;SDS011;904;47.814;11.134;2022-09-09T01:01:50;3.03;;;1.73;;
1811;SDS011;904;47.814;11.134;2022-09-09T01:04:20;4.20;;;1.60;;
1811;SDS011;904;47.814;11.134;2022-09-09T01:06:59;2.60;;;1.53;;
1811;SDS011;904;47.814;11.134;2022-09-09T01:09:38;3.17;;;1.63;;
1811;SDS011;904;47.814;11.134;2022-09-09T01:12:25;4.20;;;2.30;;
1811;SDS011;904;47.814;11.134;2022-09-09T01:15:00;2.97;;;1.30;;
1811;SDS011;904;47.814;11.134;2022-09-09T01:17:36;4.03;;;1.80;;
1811;SDS011;904;47.814;11.134;2022-09-09T01:20:17;2.70;;;1.70;;
1811;SDS011;904;47.814;11.134;2022-09-09T01:22:52;6.10;;;1.73;;
1811;SDS011;904;47.814;11.134;2022-09-09T01:26:02;3.60;;;1.57;;
1811;SDS011;904;47.814;11.134;2022-09-09T01:28:42;2.27;;;1.40;;
1811;SDS011;904;47.814;11.134;2022-09-09T01:31:11;3.13;;;1.43;;
1811;SDS011;904;47.814;11.134;2022-09-09T01:33:41;2.70;;;1.47;;
1811;SDS011;904;47.814;11.134;2022-09-09T01:36:09;2.00;;;1.20;;
1811;SDS011;904;47.814;11.134;2022-09-09T01:38:40;3.83;;;1.73;;
1811;SDS011;904;47.814;11.134;2022-09-09T01:41:09;3.07;;;1.37;;
1811;SDS011;904;47.814;11.134;2022-09-09T01:43:36;2.27;;;1.20;;
1811;SDS011;904;47.814;11.134;2022-09-09T01:46:04;2.33;;;1.17;;
1811;SDS011;904;47.814;11.134;2022-09-09T01:48:32;4.50;;;1.30;;
1811;SDS011;904;47.814;11.134;2022-09-09T01:51:00;5.43;;;1.40;;
1811;SDS011;904;47.814;11.134;2022-09-09T01:53:27;4.37;;;1.80;;
1811;SDS011;904;47.814;11.134;2022-09-09T01:55:57;2.40;;;1.40;;
1811;SDS011;904;47.814;11.134;2022-09-09T01:58:34;6.67;;;1.50;;
1811;SDS011;904;47.814;11.134;2022-09-09T02:01:12;3.23;;;1.60;;
1811;SDS011;904;47.814;11.134;2022-09-09T02:03:50;2.20;;;1.30;;
1811;SDS011;904;47.814;11.134;2022-09-09T02:06:24;2.07;;;1.20;;
1811;SDS011;904;47.814;11.134;2022-09-09T02:08:55;3.60;;;1.43;;
1811;SDS011;904;47.814;11.134;2022-09-09T02:11:25;4.07;;;1.60;;
1811;SDS011;904;47.814;11.134;2022-09-09T02:13:57;2.80;;;1.60;;
1811;SDS011;904;47.814;11.134;2022-09-09T02:16:28;2.43;;;1.67;;
1811;SDS011;904;47.814;11.134;2022-09-09T02:19:01;2.73;;;1.43;;
1811;SDS011;904;47.814;11.134;2022-09-09T02:21:33;4.13;;;3.43;;
1811;SDS011;904;47.814;11.134;2022-09-09T02:24:02;5.50;;;1.87;;
1811;SDS011;904;47.814;11.134;2022-09-09T02:26:33;3.03;;;1.33;;
1811;SDS011;904;47.814;11.134;2022-09-09T02:29:04;5.60;;;1.53;;
1811;SDS011;904;47.814;11.134;2022-09-09T02:31:35;3.20;;;1.43;;
1811;SDS011;904;47.814;11.134;2022-09-09T02:34:03;3.10;;;1.57;;
1811;SDS011;904;47.814;11.134;2022-09-09T02:36:36;3.30;;;1.40;;
1811;SDS011;904;47.814;11.134;2022-09-09T02:39:05;3.03;;;1.30;;
1811;SDS011;904;47.814;11.134;2022-09-09T02:41:36;3.10;;;1.30;;
1811;SDS011;904;47.814;11.134;2022-09-09T02:44:08;2.33;;;1.27;;
1811;SDS011;904;47.814;11.134;2022-09-09T02:46:42;2.53;;;1.20;;
1811;SDS011;904;47.814;11.134;2022-09-09T02:49:35;4.30;;;1.80;;
1811;SDS011;904;47.814;11.134;2022-09-09T02:52:12;2.50;;;1.20;;
1811;SDS011;904;47.814;11.134;2022-09-09T02:54:53;4.10;;;1.60;;
1811;SDS011;904;47.814;11.134;2022-09-09T02:57:28;2.40;;;1.50;;
1811;SDS011;904;47.814;11.134;2022-09-09T03:00:00;2.80;;;1.57;;
1811;SDS011;904;47.814;11.134;2022-09-09T03:02:28;2.43;;;1.40;;
1811;SDS011;904;47.814;11.134;2022-09-09T03:04:55;6.17;;;1.83;;
1811;SDS011;904;47.814;11.134;2022-09-09T03:07:23;3.10;;;1.43;;
1811;SDS011;904;47.814;11.134;2022-09-09T03:09:50;4.27;;;1.90;;
1811;SDS011;904;47.814;11.134;2022-09-09T03:12:20;2.60;;;1.47;;
1811;SDS011;904;47.814;11.134;2022-09-09T03:14:49;2.23;;;1.37;;
1811;SDS011;904;47.814;11.134;2022-09-09T03:17:18;3.77;;;1.80;;
1811;SDS011;904;47.814;11.134;2022-09-09T03:19:48;4.00;;;1.40;;
1811;SDS011;904;47.814;11.134;2022-09-09T03:22:17;5.30;;;1.50;;
1811;SDS011;904;47.814;11.134;2022-09-09T03:24:46;2.40;;;1.40;;
1811;SDS011;904;47.814;11.134;2022-09-09T03:27:13;5.10;;;1.40;;
1811;SDS011;904;47.814;11.134;2022-09-09T03:29:40;5.03;;;1.30;;
1811;SDS011;904;47.814;11.134;2022-09-09T03:32:10;3.13;;;1.40;;
1811;SDS011;904;47.814;11.134;2022-09-09T03:34:42;2.43;;;1.27;;
1811;SDS011;904;47.814;11.134;2022-09-09T03:37:09;5.13;;;1.20;;
1811;SDS011;904;47.814;11.134;2022-09-09T03:39:38;2.90;;;1.53;;
1811;SDS011;904;47.814;11.134;2022-09-09T03:42:05;2.10;;;1.27;;
1811;SDS011;904;47.814;11.134;2022-09-09T03:44:32;2.70;;;1.50;;
1811;SDS011;904;47.814;11.134;2022-09-09T03:47:00;3.77;;;1.80;;
1811;SDS011;904;47.814;11.134;2022-09-09T03:49:27;3.00;;;1.60;;
1811;SDS011;904;47.814;11.134;2022-09-09T03:51:56;2.30;;;1.33;;
1811;SDS011;904;47.814;11.134;2022-09-09T03:54:24;2.30;;;1.30;;
1811;SDS011;904;47.814;11.134;2022-09-09T03:56:52;4.23;;;1.40;;
1811;SDS011;904;47.814;11.134;2022-09-09T03:59:21;3.03;;;1.00;;
1811;SDS011;904;47.814;11.134;2022-09-09T04:01:48;4.60;;;1.57;;
1811;SDS011;904;47.814;11.134;2022-09-09T04:04:15;3.60;;;1.70;;
1811;SDS011;904;47.814;11.134;2022-09-09T04:06:42;3.37;;;1.57;;
1811;SDS011;904;47.814;11.134;2022-09-09T04:09:11;2.77;;;2.00;;
1811;SDS011;904;47.814;11.134;2022-09-09T04:11:38;6.03;;;2.17;;
1811;SDS011;904;47.814;11.134;2022-09-09T04:14:05;5.83;;;2.40;;
1811;SDS011;904;47.814;11.134;2022-09-09T04:16:32;3.90;;;2.30;;
1811;SDS011;904;47.814;11.134;2022-09-09T04:19:00;5.00;;;1.50;;
1811;SDS011;904;47.814;11.134;2022-09-09T04:21:29;3.30;;;1.63;;
1811;SDS011;904;47.814;11.134;2022-09-09T04:23:56;3.60;;;1.73;;
1811;SDS011;904;47.814;11.134;2022-09-09T04:26:25;2.33;;;1.53;;
1811;SDS011;904;47.814;11.134;2022-09-09T04:28:52;3.20;;;1.13;;
1811;SDS011;904;47.814;11.134;2022-09-09T04:31:20;4.10;;;1.87;;
1811;SDS011;904;47.814;11.134;2022-09-09T04:33:48;2.20;;;1.43;;
1811;SDS011;904;47.814;11.134;2022-09-09T04:36:16;3.00;;;1.40;;
1811;SDS011;904;47.814;11.134;2022-09-09T04:38:43;3.63;;;1.27;;
1811;SDS011;904;47.814;11.134;2022-09-09T04:41:13;3.37;;;1.80;;
1811;SDS011;904;47.814;11.134;2022-09-09T04:43:43;2.60;;;1.23;;
1811;SDS011;904;47.814;11.134;2022-09-09T04:46:10;3.03;;;1.47;;
1811;SDS011;904;47.814;11.134;2022-09-09T04:48:37;2.73;;;1.43;;
1811;SDS011;904;47.814;11.134;2022-09-09T04:51:05;4.47;;;1.47;;
1811;SDS011;904;47.814;11.134;2022-09-09T04:53:34;2.43;;;1.40;;
1811;SDS011;904;47.814;11.134;2022-09-09T04:56:03;3.33;;;1.33;;
1811;SDS011;904;47.814;11.134;2022-09-09T04:58:32;3.03;;;1.63;;
1811;SDS011;904;47.814;11.134;2022-09-09T05:01:06;2.80;;;1.80;;
1811;SDS011;904;47.814;11.134;2022-09-09T05:03:34;5.63;;;1.77;;
1811;SDS011;904;47.814;11.134;2022-09-09T05:06:05;3.27;;;2.00;;
1811;SDS011;904;47.814;11.134;2022-09-09T05:08:36;5.07;;;3.70;;
1811;SDS011;904;47.814;11.134;2022-09-09T05:11:11;5.47;;;3.47;;
1811;SDS011;904;47.814;11.134;2022-09-09T05:13:42;7.40;;;2.33;;
1811;SDS011;904;47.814;11.134;2022-09-09T05:16:11;2.73;;;1.60;;
1811;SDS011;904;47.814;11.134;2022-09-09T05:18:38;3.13;;;1.70;;
1811;SDS011;904;47.814;11.134;2022-09-09T05:21:06;5.20;;;2.87;;
1811;SDS011;904;47.814;11.134;2022-09-09T05:23:33;12.60;;;8.57;;
1811;SDS011;904;47.814;11.134;2022-09-09T05:26:01;8.60;;;5.80;;
1811;SDS011;904;47.814;11.134;2022-09-09T05:28:28;9.90;;;5.57;;
1811;SDS011;904;47.814;11.134;2022-09-09T05:30:56;22.03;;;14.40;;
1811;SDS011;904;47.814;11.134;2022-09-09T05:33:27;73.80;;;48.97;;
1811;SDS011;904;47.814;11.134;2022-09-09T05:35:55;31.53;;;20.50;;
1811;SDS011;904;47.814;11.134;2022-09-09T05:38:24;31.67;;;21.10;;
1811;SDS011;904;47.814;11.134;2022-09-09T05:40:54;18.73;;;15.40;;
1811;SDS011;904;47.814;11.134;2022-09-09T05:43:22;24.13;;;16.63;;
1811;SDS011;904;47.814;11.134;2022-09-09T05:46:00;22.23;;;16.80;;
1811;SDS011;904;47.814;11.134;2022-09-09T05:48:31;16.23;;;14.43;;
1811;SDS011;904;47.814;11.134;2022-09-09T05:51:01;10.50;;;8.00;;
1811;SDS011;904;47.814;11.134;2022-09-09T05:53:29;4.93;;;4.27;;
1811;SDS011;904;47.814;11.134;2022-09-09T05:56:02;3.30;;;2.27;;
1811;SDS011;904;47.814;11.134;2022-09-09T05:58:30;5.80;;;2.60;;
1811;SDS011;904;47.814;11.134;2022-09-09T06:01:02;3.70;;;2.30;;
1811;SDS011;904;47.814;11.134;2022-09-09T06:03:31;4.60;;;2.27;;
1811;SDS011;904;47.814;11.134;2022-09-09T06:06:03;4.30;;;2.30;;
1811;SDS011;904;47.814;11.134;2022-09-09T06:08:31;4.33;;;2.20;;
1811;SDS011;904;47.814;11.134;2022-09-09T06:11:02;10.60;;;2.10;;
1811;SDS011;904;47.814;11.134;2022-09-09T06:13:30;2.97;;;2.10;;
1811;SDS011;904;47.814;11.134;2022-09-09T06:15:57;4.63;;;1.80;;
1811;SDS011;904;47.814;11.134;2022-09-09T06:18:24;4.73;;;1.83;;
1811;SDS011;904;47.814;11.134;2022-09-09T06:20:57;2.33;;;1.50;;
1811;SDS011;904;47.814;11.134;2022-09-09T06:23:30;8.80;;;2.50;;
1811;SDS011;904;47.814;11.134;2022-09-09T06:26:02;11.77;;;8.90;;
1811;SDS011;904;47.814;11.134;2022-09-09T06:28:31;3.47;;;2.00;;
1811;SDS011;904;47.814;11.134;2022-09-09T06:30:58;3.97;;;1.70;;
1811;SDS011;904;47.814;11.134;2022-09-09T06:33:25;5.67;;;3.77;;
1811;SDS011;904;47.814;11.134;2022-09-09T06:35:54;8.83;;;5.50;;
1811;SDS011;904;47.814;11.134;2022-09-09T06:38:23;4.27;;;2.63;;
1811;SDS011;904;47.814;11.134;2022-09-09T06:40:51;8.97;;;5.70;;
1811;SDS011;904;47.814;11.134;2022-09-09T06:43:21;8.23;;;5.37;;
1811;SDS011;904;47.814;11.134;2022-09-09T06:45:56;7.57;;;4.30;;
1811;SDS011;904;47.814;11.134;2022-09-09T06:48:25;3.13;;;1.87;;
1811;SDS011;904;47.814;11.134;2022-09-09T06:50:59;3.57;;;1.50;;
1811;SDS011;904;47.814;11.134;2022-09-09T06:53:29;3.67;;;2.13;;
1811;SDS011;904;47.814;11.134;2022-09-09T06:55:58;2.93;;;1.53;;
1811;SDS011;904;47.814;11.134;2022-09-09T06:58:26;2.40;;;1.10;;
1811;SDS011;904;47.814;11.134;2022-09-09T07:01:00;5.10;;;1.90;;
1811;SDS011;904;47.814;11.134;2022-09-09T07:03:29;2.80;;;1.67;;
1811;SDS011;904;47.814;11.134;2022-09-09T07:05:56;6.83;;;1.73;;
1811;SDS011;904;47.814;11.134;2022-09-09T07:08:24;3.30;;;1.70;;
1811;SDS011;904;47.814;11.134;2022-09-09T07:10:53;3.30;;;1.67;;
1811;SDS011;904;47.814;11.134;2022-09-09T07:13:24;2.80;;;1.90;;
1811;SDS011;904;47.814;11.134;2022-09-09T07:15:52;3.93;;;1.57;;
1811;SDS011;904;47.814;11.134;2022-09-09T07:18:19;4.00;;;1.67;;
1811;SDS011;904;47.814;11.134;2022-09-09T07:20:52;3.23;;;1.70;;
1811;SDS011;904;47.814;11.134;2022-09-09T07:23:20;2.60;;;1.50;;
1811;SDS011;904;47.814;11.134;2022-09-09T07:25:47;3.60;;;1.87;;
1811;SDS011;904;47.814;11.134;2022-09-09T07:28:15;6.27;;;1.47;;
1811;SDS011;904;47.814;11.134;2022-09-09T07:30:43;2.87;;;1.53;;
1811;SDS011;904;47.814;11.134;2022-09-09T07:33:09;4.97;;;1.63;;
1811;SDS011;904;47.814;11.134;2022-09-09T07:35:36;4.50;;;1.37;;
1811;SDS011;904;47.814;11.134;2022-09-09T07:38:03;4.83;;;1.53;;
1811;SDS011;904;47.814;11.134;2022-09-09T07:40:31;4.90;;;1.57;;
1811;SDS011;904;47.814;11.134;2022-09-09T07:43:00;3.80;;;2.50;;
1811;SDS011;904;47.814;11.134;2022-09-09T07:45:29;5.43;;;3.40;;
1811;SDS011;904;47.814;11.134;2022-09-09T07:47:58;2.90;;;1.83;;
1811;SDS011;904;47.814;11.134;2022-09-09T07:50:28;2.43;;;1.37;;
1811;SDS011;904;47.814;11.134;2022-09-09T07:53:00;3.17;;;1.50;;
1811;SDS011;904;47.814;11.134;2022-09-09T07:55:30;3.40;;;1.33;;
1811;SDS011;904;47.814;11.134;2022-09-09T07:57:57;3.70;;;1.47;;
1811;SDS011;904;47.814;11.134;2022-09-09T08:00:24;2.17;;;1.10;;
1811;SDS011;904;47.814;11.134;2022-09-09T08:02:54;2.70;;;1.63;;
1811;SDS011;904;47.814;11.134;2022-09-09T08:05:21;3.30;;;1.50;;
1811;SDS011;904;47.814;11.134;2022-09-09T08:07:48;3.80;;;1.40;;
1811;SDS011;904;47.814;11.134;2022-09-09T08:10:22;4.63;;;1.93;;
1811;SDS011;904;47.814;11.134;2022-09-09T08:12:49;5.60;;;1.60;;
1811;SDS011;904;47.814;11.134;2022-09-09T08:15:17;3.23;;;2.10;;
1811;SDS011;904;47.814;11.134;2022-09-09T08:17:44;2.80;;;1.30;;
1811;SDS011;904;47.814;11.134;2022-09-09T08:20:13;3.30;;;1.20;;
1811;SDS011;904;47.814;11.134;2022-09-09T08:22:40;2.33;;;1.10;;
1811;SDS011;904;47.814;11.134;2022-09-09T08:25:07;2.77;;;1.30;;
1811;SDS011;904;47.814;11.134;2022-09-09T08:27:35;2.90;;;1.27;;
1811;SDS011;904;47.814;11.134;2022-09-09T08:30:02;3.23;;;1.40;;
1811;SDS011;904;47.814;11.134;2022-09-09T08:32:30;4.23;;;1.50;;
1811;SDS011;904;47.814;11.134;2022-09-09T08:35:01;2.53;;;1.30;;
1811;SDS011;904;47.814;11.134;2022-09-09T08:37:33;3.03;;;1.50;;
1811;SDS011;904;47.814;11.134;2022-09-09T08:40:00;3.80;;;1.03;;
1811;SDS011;904;47.814;11.134;2022-09-09T08:42:34;2.73;;;1.10;;
1811;SDS011;904;47.814;11.134;2022-09-09T08:45:20;3.10;;;1.10;;
1811;SDS011;904;47.814;11.134;2022-09-09T08:48:01;2.10;;;1.07;;
1811;SDS011;904;47.814;11.134;2022-09-09T08:50:37;2.40;;;1.03;;
1811;SDS011;904;47.814;11.134;2022-09-09T08:53:11;5.30;;;1.10;;
1811;SDS011;904;47.814;11.134;2022-09-09T08:55:43;2.63;;;1.27;;
1811;SDS011;904;47.814;11.134;2022-09-09T08:58:14;2.83;;;0.90;;
1811;SDS011;904;47.814;11.134;2022-09-09T09:00:50;2.13;;;0.80;;
1811;SDS011;904;47.814;11.134;2022-09-09T09:03:28;2.70;;;0.93;;
1811;SDS011;904;47.814;11.134;2022-09-09T09:06:03;2.23;;;0.97;;
1811;SDS011;904;47.814;11.134;2022-09-09T09:08:38;3.40;;;1.00;;
1811;SDS011;904;47.814;11.134;2022-09-09T09:11:10;1.60;;;0.70;;
1811;SDS011;904;47.814;11.134;2022-09-09T09:13:38;2.47;;;0.80;;
1811;SDS011;904;47.814;11.134;2022-09-09T09:16:13;2.17;;;0.80;;
1811;SDS011;904;47.814;11.134;2022-09-09T09:18:46;4.40;;;0.90;;
1811;SDS011;904;47.814;11.134;2022-09-09T09:21:14;2.53;;;0.90;;
1811;SDS011;904;47.814;11.134;2022-09-09T09:23:51;2.93;;;1.10;;
1811;SDS011;904;47.814;11.134;2022-09-09T09:26:22;3.60;;;1.30;;
1811;SDS011;904;47.814;11.134;2022-09-09T09:28:53;2.80;;;1.30;;
1811;SDS011;904;47.814;11.134;2022-09-09T09:31:22;2.83;;;1.23;;
1811;SDS011;904;47.814;11.134;2022-09-09T09:33:57;2.40;;;1.30;;
1811;SDS011;904;47.814;11.134;2022-09-09T09:36:24;2.80;;;0.80;;
1811;SDS011;904;47.814;11.134;2022-09-09T09:39:01;3.10;;;1.10;;
1811;SDS011;904;47.814;11.134;2022-09-09T09:41:36;3.90;;;0.90;;
1811;SDS011;904;47.814;11.134;2022-09-09T09:44:05;4.63;;;1.17;;
1811;SDS011;904;47.814;11.134;2022-09-09T09:46:48;2.20;;;0.90;;
1811;SDS011;904;47.814;11.134;2022-09-09T09:49:15;4.13;;;0.83;;
1811;SDS011;904;47.814;11.134;2022-09-09T09:51:42;2.83;;;1.10;;
1811;SDS011;904;47.814;11.134;2022-09-09T09:54:13;6.37;;;1.03;;
1811;SDS011;904;47.814;11.134;2022-09-09T09:56:44;3.17;;;1.17;;
1811;SDS011;904;47.814;11.134;2022-09-09T09:59:23;3.40;;;1.10;;
1811;SDS011;904;47.814;11.134;2022-09-09T10:02:06;2.03;;;1.30;;
1811;SDS011;904;47.814;11.134;2022-09-09T10:04:40;3.63;;;1.20;;
1811;SDS011;904;47.814;11.134;2022-09-09T10:07:09;5.80;;;3.40;;
1811;SDS011;904;47.814;11.134;2022-09-09T10:09:44;2.43;;;1.40;;
1811;SDS011;904;47.814;11.134;2022-09-09T10:12:14;3.47;;;1.03;;
1811;SDS011;904;47.814;11.134;2022-09-09T10:14:52;6.80;;;1.13;;
1811;SDS011;904;47.814;11.134;2022-09-09T10:17:27;3.20;;;1.00;;
1811;SDS011;904;47.814;11.134;2022-09-09T10:20:04;3.60;;;1.10;;
1811;SDS011;904;47.814;11.134;2022-09-09T10:22:47;1.70;;;0.70;;
1811;SDS011;904;47.814;11.134;2022-09-09T10:25:24;2.50;;;1.10;;
1811;SDS011;904;47.814;11.134;2022-09-09T10:28:14;2.13;;;0.83;;
1811;SDS011;904;47.814;11.134;2022-09-09T10:31:12;3.03;;;0.87;;
1811;SDS011;904;47.814;11.134;2022-09-09T10:33:49;2.40;;;1.00;;
1811;SDS011;904;47.814;11.134;2022-09-09T10:36:19;2.43;;;1.07;;
1811;SDS011;904;47.814;11.134;2022-09-09T10:38:48;2.47;;;0.80;;
1811;SDS011;904;47.814;11.134;2022-09-09T10:41:31;2.20;;;1.07;;
1811;SDS011;904;47.814;11.134;2022-09-09T10:44:17;2.53;;;1.13;;
1811;SDS011;904;47.814;11.134;2022-09-09T10:46:57;2.13;;;0.70;;
1811;SDS011;904;47.814;11.134;2022-09-09T10:49:43;3.00;;;0.80;;
1811;SDS011;904;47.814;11.134;2022-09-09T10:52:22;2.00;;;0.93;;
1811;SDS011;904;47.814;11.134;2022-09-09T10:54:56;5.47;;;1.63;;
1811;SDS011;904;47.814;11.134;2022-09-09T10:57:29;3.27;;;1.83;;
1811;SDS011;904;47.814;11.134;2022-09-09T11:00:01;3.33;;;1.10;;
1811;SDS011;904;47.814;11.134;2022-09-09T11:02:31;2.17;;;0.87;;
1811;SDS011;904;47.814;11.134;2022-09-09T11:05:00;2.10;;;1.00;;
1811;SDS011;904;47.814;11.134;2022-09-09T11:07:33;1.90;;;0.90;;
1811;SDS011;904;47.814;11.134;2022-09-09T11:10:07;1.90;;;0.90;;
1811;SDS011;904;47.814;11.134;2022-09-09T11:12:50;3.40;;;0.80;;
1811;SDS011;904;47.814;11.134;2022-09-09T11:15:25;2.30;;;0.80;;
1811;SDS011;904;47.814;11.134;2022-09-09T11:17:57;1.93;;;0.77;;
1811;SDS011;904;47.814;11.134;2022-09-09T11:20:27;4.43;;;2.63;;
1811;SDS011;904;47.814;11.134;2022-09-09T11:22:55;4.53;;;3.27;;
1811;SDS011;904;47.814;11.134;2022-09-09T11:25:28;2.00;;;1.10;;
1811;SDS011;904;47.814;11.134;2022-09-09T11:28:09;2.07;;;0.87;;
1811;SDS011;904;47.814;11.134;2022-09-09T11:30:56;2.40;;;0.90;;
1811;SDS011;904;47.814;11.134;2022-09-09T11:33:41;3.00;;;1.30;;
1811;SDS011;904;47.814;11.134;2022-09-09T11:36:30;2.00;;;0.63;;
1811;SDS011;904;47.814;11.134;2022-09-09T11:39:26;2.60;;;0.73;;
1811;SDS011;904;47.814;11.134;2022-09-09T11:42:15;2.40;;;0.93;;
1811;SDS011;904;47.814;11.134;2022-09-09T11:44:46;3.83;;;1.10;;
1811;SDS011;904;47.814;11.134;2022-09-09T11:47:18;4.87;;;2.73;;
1811;SDS011;904;47.814;11.134;2022-09-09T11:49:50;2.83;;;1.20;;
1811;SDS011;904;47.814;11.134;2022-09-09T11:52:23;1.93;;;0.73;;
1811;SDS011;904;47.814;11.134;2022-09-09T11:54:51;2.57;;;1.20;;
1811;SDS011;904;47.814;11.134;2022-09-09T11:57:25;3.43;;;2.07;;
1811;SDS011;904;47.814;11.134;2022-09-09T11:59:58;3.00;;;1.10;;
1811;SDS011;904;47.814;11.134;2022-09-09T12:02:26;2.37;;;1.13;;
1811;SDS011;904;47.814;11.134;2022-09-09T12:04:57;3.00;;;1.00;;
1811;SDS011;904;47.814;11.134;2022-09-09T12:07:34;1.90;;;0.77;;
1811;SDS011;904;47.814;11.134;2022-09-09T12:10:05;2.87;;;0.90;;
1811;SDS011;904;47.814;11.134;2022-09-09T12:12:48;1.80;;;0.70;;
1811;SDS011;904;47.814;11.134;2022-09-09T12:15:21;4.30;;;1.63;;
1811;SDS011;904;47.814;11.134;2022-09-09T12:17:51;2.57;;;0.90;;
1811;SDS011;904;47.814;11.134;2022-09-09T12:20:20;2.00;;;0.83;;
1811;SDS011;904;47.814;11.134;2022-09-09T12:22:54;1.93;;;0.60;;
1811;SDS011;904;47.814;11.134;2022-09-09T12:25:34;2.47;;;0.77;;
1811;SDS011;904;47.814;11.134;2022-09-09T12:28:14;3.37;;;1.10;;
1811;SDS011;904;47.814;11.134;2022-09-09T12:30:48;2.57;;;1.00;;
1811;SDS011;904;47.814;11.134;2022-09-09T12:33:22;3.23;;;0.80;;
1811;SDS011;904;47.814;11.134;2022-09-09T12:35:51;2.40;;;0.80;;
1811;SDS011;904;47.814;11.134;2022-09-09T12:38:22;1.70;;;0.60;;
1811;SDS011;904;47.814;11.134;2022-09-09T12:40:58;2.87;;;0.83;;
1811;SDS011;904;47.814;11.134;2022-09-09T12:43:26;2.67;;;0.63;;
1811;SDS011;904;47.814;11.134;2022-09-09T12:45:56;2.60;;;0.80;;
1811;SDS011;904;47.814;11.134;2022-09-09T12:48:30;2.33;;;0.80;;
1811;SDS011;904;47.814;11.134;2022-09-09T12:51:01;2.23;;;0.70;;
1811;SDS011;904;47.814;11.134;2022-09-09T12:53:31;4.90;;;1.10;;
1811;SDS011;904;47.814;11.134;2022-09-09T12:56:02;3.70;;;0.80;;
1811;SDS011;904;47.814;11.134;2022-09-09T12:58:32;3.67;;;0.90;;
1811;SDS011;904;47.814;11.134;2022-09-09T13:01:02;3.57;;;0.83;;
1811;SDS011;904;47.814;11.134;2022-09-09T13:03:31;3.33;;;0.90;;
1811;SDS011;904;47.814;11.134;2022-09-09T13:05:59;2.63;;;0.60;;
1811;SDS011;904;47.814;11.134;2022-09-09T13:08:38;2.20;;;1.00;;
1811;SDS011;904;47.814;11.134;2022-09-09T13:11:07;3.40;;;0.70;;
1811;SDS011;904;47.814;11.134;2022-09-09T13:13:38;2.53;;;0.70;;
1811;SDS011;904;47.814;11.134;2022-09-09T13:16:18;5.93;;;0.70;;
1811;SDS011;904;47.814;11.134;2022-09-09T13:18:46;2.63;;;0.83;;
1811;SDS011;904;47.814;11.134;2022-09-09T13:21:14;2.23;;;0.90;;
1811;SDS011;904;47.814;11.134;2022-09-09T13:23:41;2.13;;;0.87;;
1811;SDS011;904;47.814;11.134;2022-09-09T13:26:21;2.77;;;1.13;;
1811;SDS011;904;47.814;11.134;2022-09-09T13:28:55;3.17;;;0.93;;
1811;SDS011;904;47.814;11.134;2022-09-09T13:31:45;3.63;;;1.50;;
1811;SDS011;904;47.814;11.134;2022-09-09T13:34:12;3.27;;;1.57;;
1811;SDS011;904;47.814;11.134;2022-09-09T13:36:52;2.87;;;1.30;;
1811;SDS011;904;47.814;11.134;2022-09-09T13:39:21;3.87;;;1.50;;
1811;SDS011;904;47.814;11.134;2022-09-09T13:41:49;3.67;;;1.00;;
1811;SDS011;904;47.814;11.134;2022-09-09T13:44:17;3.50;;;0.80;;
1811;SDS011;904;47.814;11.134;2022-09-09T13:46:58;3.73;;;1.00;;
1811;SDS011;904;47.814;11.134;2022-09-09T13:49:30;3.27;;;0.67;;
1811;SDS011;904;47.814;11.134;2022-09-09T13:52:05;2.77;;;1.00;;
1811;SDS011;904;47.814;11.134;2022-09-09T13:54:36;2.50;;;0.90;;
1811;SDS011;904;47.814;11.134;2022-09-09T13:57:03;3.20;;;0.90;;
1811;SDS011;904;47.814;11.134;2022-09-09T13:59:30;1.90;;;0.83;;
1811;SDS011;904;47.814;11.134;2022-09-09T14:01:59;1.70;;;0.70;;
1811;SDS011;904;47.814;11.134;2022-09-09T14:04:26;2.23;;;0.70;;
1811;SDS011;904;47.814;11.134;2022-09-09T14:06:54;2.90;;;1.27;;
1811;SDS011;904;47.814;11.134;2022-09-09T14:09:22;3.67;;;1.80;;
1811;SDS011;904;47.814;11.134;2022-09-09T14:11:49;4.43;;;1.30;;
1811;SDS011;904;47.814;11.134;2022-09-09T14:14:16;3.00;;;1.10;;
1811;SDS011;904;47.814;11.134;2022-09-09T14:16:43;2.57;;;1.03;;
1811;SDS011;904;47.814;11.134;2022-09-09T14:19:12;2.20;;;0.90;;
1811;SDS011;904;47.814;11.134;2022-09-09T14:21:39;3.33;;;1.03;;
1811;SDS011;904;47.814;11.134;2022-09-09T14:24:05;2.17;;;0.90;;
1811;SDS011;904;47.814;11.134;2022-09-09T14:26:32;3.30;;;0.80;;
1811;SDS011;904;47.814;11.134;2022-09-09T14:28:59;3.37;;;0.80;;
1811;SDS011;904;47.814;11.134;2022-09-09T14:31:26;2.30;;;0.90;;
1811;SDS011;904;47.814;11.134;2022-09-09T14:33:53;2.90;;;1.20;;
1811;SDS011;904;47.814;11.134;2022-09-09T14:36:22;3.80;;;0.90;;
1811;SDS011;904;47.814;11.134;2022-09-09T14:38:49;2.30;;;1.17;;
1811;SDS011;904;47.814;11.134;2022-09-09T14:41:17;2.20;;;0.80;;
1811;SDS011;904;47.814;11.134;2022-09-09T14:43:47;6.23;;;1.07;;
1811;SDS011;904;47.814;11.134;2022-09-09T14:46:15;5.83;;;1.17;;
1811;SDS011;904;47.814;11.134;2022-09-09T14:48:44;7.40;;;3.70;;
1811;SDS011;904;47.814;11.134;2022-09-09T14:51:14;3.30;;;1.67;;
1811;SDS011;904;47.814;11.134;2022-09-09T14:53:44;8.20;;;1.50;;
1811;SDS011;904;47.814;11.134;2022-09-09T14:56:12;2.63;;;1.07;;
1811;SDS011;904;47.814;11.134;2022-09-09T14:58:41;2.07;;;0.83;;
1811;SDS011;904;47.814;11.134;2022-09-09T15:01:09;2.23;;;1.10;;
1811;SDS011;904;47.814;11.134;2022-09-09T15:03:37;2.17;;;0.80;;
1811;SDS011;904;47.814;11.134;2022-09-09T15:06:06;3.50;;;0.83;;
1811;SDS011;904;47.814;11.134;2022-09-09T15:08:34;3.60;;;1.20;;
1811;SDS011;904;47.814;11.134;2022-09-09T15:11:03;2.37;;;1.20;;
1811;SDS011;904;47.814;11.134;2022-09-09T15:13:32;3.03;;;1.33;;
1811;SDS011;904;47.814;11.134;2022-09-09T15:16:03;3.20;;;1.00;;
1811;SDS011;904;47.814;11.134;2022-09-09T15:18:31;2.17;;;1.27;;
1811;SDS011;904;47.814;11.134;2022-09-09T15:20:58;3.77;;;1.17;;
1811;SDS011;904;47.814;11.134;2022-09-09T15:23:26;2.37;;;1.20;;
1811;SDS011;904;47.814;11.134;2022-09-09T15:25:53;3.37;;;0.90;;
1811;SDS011;904;47.814;11.134;2022-09-09T15:28:23;2.80;;;0.83;;
1811;SDS011;904;47.814;11.134;2022-09-09T15:30:50;2.50;;;0.97;;
1811;SDS011;904;47.814;11.134;2022-09-09T15:33:18;3.10;;;1.07;;
1811;SDS011;904;47.814;11.134;2022-09-09T15:35:46;5.10;;;0.90;;
1811;SDS011;904;47.814;11.134;2022-09-09T15:38:13;3.13;;;0.87;;
1811;SDS011;904;47.814;11.134;2022-09-09T15:40:41;2.77;;;0.90;;
1811;SDS011;904;47.814;11.134;2022-09-09T15:43:09;1.80;;;0.80;;